CheckWX is a tool to help pilots better visualize weather data.  It is not intended as a substitute for an official pre-flight weather briefing.

03:40:54 UTC

VTUK METAR
Khon Kaen Airport
Khon Kaen, Thailand
Current

41 mins ago

VTUK 180300Z 06009KT 020V110 9000 FEW030 33/22 Q1011 NOSIG
Observed
Sep-18 @ 03:00 UTC
Wind
  • 060° at 9 KTS
Visibility
9,000 meters
Flight Rules
VFR
Cloud Levels
  • Few at 3,000' AGL
Temperature
33°C / 91°F
Dewpoint
22°C / 72°F
Heat Index
37°C / 98°F
Humidity
52%
Altimeter
29.85" Hg
Pressure
1010.92 hPa
Previous

2 hours ago

VTUK 180200Z 08005KT 050V130 9000 NSC 31/22 Q1011 NOSIG
Observed
Sep-18 @ 02:00 UTC
Wind
  • 080° at 5 KTS
Visibility
9,000 meters
Flight Rules
VFR
Cloud Levels
  • Clear skies
Temperature
31°C / 88°F
Dewpoint
22°C / 72°F
Heat Index
35°C / 95°F
Humidity
59%
Altimeter
29.85" Hg
Pressure
1010.92 hPa
Previous

3 hours ago

VTUK 180100Z VRB02KT 9000 NSC 31/24 Q1011 NOSIG
Observed
Sep-18 @ 01:00 UTC
Wind
  • Variable at 2 KTS
Visibility
9,000 meters
Flight Rules
VFR
Cloud Levels
  • Clear skies
Temperature
31°C / 88°F
Dewpoint
24°C / 75°F
Heat Index
37°C / 98°F
Humidity
66%
Altimeter
29.85" Hg
Pressure
1010.92 hPa